createdAt,value
2022-08-19T00:00:51.055Z,63.46
2022-08-19T00:01:52.911Z,63.26
2022-08-19T00:02:51.165Z,63.56
2022-08-19T00:03:51.036Z,63.85
2022-08-19T00:04:51.080Z,63.56
2022-08-19T00:05:50.990Z,63.75
2022-08-19T00:06:50.973Z,63.36
2022-08-19T00:07:50.997Z,63.26
2022-08-19T00:08:50.966Z,63.16
2022-08-19T00:09:50.986Z,62.77
2022-08-19T00:10:50.957Z,62.57
2022-08-19T00:11:50.947Z,62.57
2022-08-19T00:12:51.082Z,62.66
2022-08-19T00:13:50.916Z,62.57
2022-08-19T00:14:50.905Z,62.66
2022-08-19T00:15:50.881Z,62.47
2022-08-19T00:16:50.862Z,62.47
2022-08-19T00:17:50.903Z,62.27
2022-08-19T00:18:50.878Z,62.66
2022-08-19T00:19:50.850Z,62.47
2022-08-19T00:20:50.847Z,62.17
2022-08-19T00:21:50.843Z,62.17
2022-08-19T00:22:50.915Z,62.07
2022-08-19T00:23:50.810Z,62.17
2022-08-19T00:24:51.130Z,62.17
2022-08-19T00:25:50.805Z,62.04
2022-08-19T00:26:50.760Z,62.04
2022-08-19T00:27:50.765Z,62.07
2022-08-19T00:28:50.787Z,62.14
2022-08-19T00:29:52.393Z,62.04
2022-08-19T00:30:50.747Z,62.14
2022-08-19T00:31:50.841Z,62.14
2022-08-19T00:32:50.726Z,62.34
2022-08-19T00:33:50.693Z,62.93
2022-08-19T00:34:50.691Z,62.63
2022-08-19T00:35:55.935Z,62.54
2022-08-19T00:36:51.706Z,62.34
2022-08-19T00:37:50.657Z,62.24
2022-08-19T00:38:50.634Z,62.24
2022-08-19T00:39:50.679Z,62.24
2022-08-19T00:40:50.625Z,62.24
2022-08-19T00:41:50.603Z,62.34
2022-08-19T00:42:50.705Z,62.34
2022-08-19T00:43:50.590Z,62.24
2022-08-19T00:44:50.592Z,62.34
2022-08-19T00:45:50.610Z,62.14
2022-08-19T00:46:55.656Z,62.04
2022-08-19T00:47:51.554Z,62.24
2022-08-19T00:48:50.547Z,62.14
2022-08-19T00:49:50.514Z,62.04
2022-08-19T00:50:52.015Z,62.54
2022-08-19T00:51:50.505Z,62.84
2022-08-19T00:52:50.514Z,63.13
2022-08-19T00:53:50.516Z,63.26
2022-08-19T00:54:52.684Z,63.33
2022-08-19T00:55:51.473Z,63.56
2022-08-19T00:56:50.459Z,63.65
2022-08-19T00:57:50.455Z,63.56
2022-08-19T00:58:50.447Z,63.65
2022-08-19T00:59:56.433Z,63.46
2022-08-19T01:00:51.405Z,63.26
2022-08-19T01:01:50.431Z,63.36
2022-08-19T01:02:50.411Z,63.36
2022-08-19T01:03:56.966Z,63.56
2022-08-19T01:04:51.366Z,63.75
2022-08-19T01:05:50.368Z,64.05
2022-08-19T01:06:50.344Z,64.25
2022-08-19T01:07:50.343Z,64.45
2022-08-19T01:08:50.400Z,64.45
2022-08-19T01:09:50.313Z,64.25
2022-08-19T01:10:50.340Z,64.15
2022-08-19T01:11:50.283Z,64.25
2022-08-19T01:12:50.298Z,64.15
2022-08-19T01:13:50.458Z,64.15
2022-08-19T01:14:50.281Z,64.35
2022-08-19T01:15:50.296Z,64.35
2022-08-19T01:16:50.234Z,64.45
2022-08-19T01:17:50.228Z,64.35
2022-08-19T01:18:50.302Z,64.54
2022-08-19T01:19:50.216Z,64.54
2022-08-19T01:20:50.186Z,64.35
2022-08-19T01:21:50.174Z,64.25
2022-08-19T01:22:50.175Z,64.45
2022-08-19T01:23:50.156Z,64.45
2022-08-19T01:24:50.157Z,64.54
2022-08-19T01:25:50.146Z,64.54
2022-08-19T01:26:50.137Z,64.25
2022-08-19T01:27:50.114Z,64.15
2022-08-19T01:28:50.094Z,64.05
2022-08-19T01:29:50.108Z,64.35
2022-08-19T01:30:51.188Z,64.45
2022-08-19T01:31:50.065Z,64.15
2022-08-19T01:32:50.088Z,64.15
2022-08-19T01:33:50.060Z,64.05
2022-08-19T01:34:50.072Z,64.05
2022-08-19T01:35:50.026Z,64.15
2022-08-19T01:36:50.023Z,64.05
2022-08-19T01:37:50.003Z,63.85
2022-08-19T01:38:50.029Z,63.85
2022-08-19T01:39:50.026Z,63.95
2022-08-19T01:40:49.999Z,64.05
2022-08-19T01:41:50.023Z,63.95
2022-08-19T01:42:49.971Z,63.85
2022-08-19T01:44:10.006Z,63.75
2022-08-19T01:44:50.957Z,63.65
2022-08-19T01:45:49.937Z,63.85
2022-08-19T01:46:49.925Z,63.65
2022-08-19T01:47:51.690Z,63.65
2022-08-19T01:48:50.918Z,63.65
2022-08-19T01:49:49.890Z,63.65
2022-08-19T01:50:49.867Z,63.65
2022-08-19T01:51:49.857Z,63.65
2022-08-19T01:52:49.917Z,63.65
2022-08-19T01:53:50.835Z,63.65
2022-08-19T01:54:49.851Z,63.65
2022-08-19T01:55:49.829Z,63.65
2022-08-19T01:56:49.816Z,63.65
2022-08-19T01:57:49.956Z,63.75
2022-08-19T01:58:49.802Z,63.75
2022-08-19T01:59:49.765Z,63.65
2022-08-19T02:00:49.784Z,63.65
2022-08-19T02:01:49.790Z,63.75
2022-08-19T02:02:49.898Z,63.95
2022-08-19T02:03:49.724Z,63.75
2022-08-19T02:04:49.746Z,63.75
2022-08-19T02:05:49.705Z,63.65
2022-08-19T02:06:49.717Z,63.56
2022-08-19T02:07:49.740Z,63.56
2022-08-19T02:08:49.674Z,63.46
2022-08-19T02:09:49.684Z,63.46
2022-08-19T02:10:49.694Z,63.46
2022-08-19T02:11:49.634Z,63.46
2022-08-19T02:12:49.706Z,63.56
2022-08-19T02:13:49.630Z,63.56
2022-08-19T02:14:49.635Z,63.56
2022-08-19T02:15:49.609Z,63.56
2022-08-19T02:16:49.609Z,63.56
2022-08-19T02:17:49.586Z,63.56
2022-08-19T02:18:49.565Z,63.56
2022-08-19T02:19:49.589Z,63.56
2022-08-19T02:20:49.585Z,63.56
2022-08-19T02:21:49.562Z,63.65
2022-08-19T02:22:49.552Z,63.65
2022-08-19T02:23:49.559Z,63.65
2022-08-19T02:24:49.506Z,63.65
2022-08-19T02:25:49.494Z,63.65
2022-08-19T02:26:49.529Z,63.65
2022-08-19T02:27:49.475Z,63.65
2022-08-19T02:28:49.468Z,63.65
2022-08-19T02:29:49.452Z,63.65
2022-08-19T02:30:49.469Z,63.75
2022-08-19T02:31:49.456Z,63.75
2022-08-19T02:32:49.429Z,63.75
2022-08-19T02:33:49.424Z,63.85
2022-08-19T02:34:49.418Z,63.85
2022-08-19T02:35:49.389Z,63.85
2022-08-19T02:36:51.843Z,63.85
2022-08-19T02:37:49.373Z,63.85
2022-08-19T02:38:54.777Z,63.85
2022-08-19T02:39:50.433Z,63.85
2022-08-19T02:40:49.360Z,63.85
2022-08-19T02:41:49.339Z,63.95
2022-08-19T02:42:49.338Z,63.95
2022-08-19T02:44:26.600Z,63.95
2022-08-19T02:44:50.317Z,63.98
2022-08-19T02:45:49.297Z,64.05
2022-08-19T02:46:49.290Z,63.95
2022-08-19T02:47:49.281Z,63.98
2022-08-19T02:48:49.260Z,63.95
2022-08-19T02:49:49.242Z,63.95
2022-08-19T02:50:51.995Z,63.95
2022-08-19T02:51:49.237Z,63.98
2022-08-19T02:52:49.256Z,63.98
2022-08-19T02:53:49.207Z,63.95
2022-08-19T02:54:49.183Z,63.95
2022-08-19T02:55:49.205Z,63.98
2022-08-19T02:56:49.185Z,64.05
2022-08-19T02:57:49.169Z,63.95
2022-08-19T02:58:49.161Z,63.95
2022-08-19T02:59:49.136Z,64.08
2022-08-19T03:00:49.143Z,64.08
2022-08-19T03:01:49.129Z,64.08
2022-08-19T03:02:49.127Z,64.08
2022-08-19T03:03:49.111Z,64.05
2022-08-19T03:04:49.088Z,64.18
2022-08-19T03:05:56.120Z,64.08
2022-08-19T03:06:50.100Z,64.18
2022-08-19T03:07:49.059Z,64.18
2022-08-19T03:08:49.050Z,64.08
2022-08-19T03:09:49.040Z,64.08
2022-08-19T03:10:49.035Z,64.28
2022-08-19T03:11:49.007Z,64.18
2022-08-19T03:12:49.087Z,64.18
2022-08-19T03:13:49.009Z,63.98
2022-08-19T03:14:48.996Z,64.08
2022-08-19T03:15:48.970Z,64.08
2022-08-19T03:16:48.967Z,64.18
2022-08-19T03:17:48.972Z,64.18
2022-08-19T03:18:48.959Z,64.18
2022-08-19T03:19:48.938Z,64.08
2022-08-19T03:20:48.917Z,64.28
2022-08-19T03:21:48.920Z,64.28
2022-08-19T03:22:48.934Z,64.18
2022-08-19T03:23:48.895Z,64.28
2022-08-19T03:24:48.866Z,64.08
2022-08-19T03:26:03.934Z,64.28
2022-08-19T03:26:49.849Z,64.28
2022-08-19T03:27:48.859Z,64.18
2022-08-19T03:28:51.279Z,64.28
2022-08-19T03:29:48.839Z,64.18
2022-08-19T03:30:48.805Z,64.18
2022-08-19T03:31:52.280Z,64.28
2022-08-19T03:32:48.785Z,64.38
2022-08-19T03:33:49.815Z,64.28
2022-08-19T03:34:48.803Z,64.28
2022-08-19T03:35:48.757Z,64.18
2022-08-19T03:36:48.760Z,64.18
2022-08-19T03:37:48.749Z,64.18
2022-08-19T03:38:48.718Z,64.28
2022-08-19T03:39:49.793Z,64.18
2022-08-19T03:40:48.707Z,64.18
2022-08-19T03:41:48.833Z,64.28
2022-08-19T03:42:57.057Z,64.28
2022-08-19T03:43:49.689Z,64.28
2022-08-19T03:44:48.668Z,64.28
2022-08-19T03:45:48.697Z,64.38
2022-08-19T03:46:48.654Z,64.28
2022-08-19T03:47:48.639Z,64.28
2022-08-19T03:48:48.612Z,64.38
2022-08-19T03:49:48.629Z,64.38
2022-08-19T03:50:48.612Z,64.38
2022-08-19T03:51:48.602Z,64.28
2022-08-19T03:52:48.727Z,64.28
2022-08-19T03:53:48.575Z,64.28
2022-08-19T03:54:48.554Z,64.28
2022-08-19T03:55:48.547Z,64.28
2022-08-19T03:56:48.553Z,64.28
2022-08-19T03:57:48.530Z,64.28
2022-08-19T03:58:48.529Z,64.38
2022-08-19T03:59:48.524Z,64.38
2022-08-19T04:00:48.548Z,64.28
2022-08-19T04:01:48.522Z,64.18
2022-08-19T04:02:58.093Z,64.38
2022-08-19T04:03:49.464Z,64.38
2022-08-19T04:04:48.446Z,64.28
2022-08-19T04:05:48.453Z,64.28
2022-08-19T04:06:48.449Z,64.18
2022-08-19T04:07:48.426Z,64.18
2022-08-19T04:08:48.420Z,64.18
2022-08-19T04:09:48.418Z,64.28
2022-08-19T04:10:48.411Z,64.18
2022-08-19T04:11:48.392Z,64.18
2022-08-19T04:12:48.383Z,64.18
2022-08-19T04:13:48.357Z,64.18
2022-08-19T04:14:48.359Z,64.18
2022-08-19T04:15:48.362Z,64.18
2022-08-19T04:16:48.342Z,64.08
2022-08-19T04:17:48.317Z,64.38
2022-08-19T04:18:48.330Z,64.28
2022-08-19T04:19:48.310Z,64.18
2022-08-19T04:20:48.277Z,64.18
2022-08-19T04:21:48.289Z,64.18
2022-08-19T04:22:48.290Z,64.08
2022-08-19T04:23:48.270Z,64.18
2022-08-19T04:24:48.248Z,64.08
2022-08-19T04:25:48.237Z,64.18
2022-08-19T04:26:48.217Z,64.08
2022-08-19T04:27:48.233Z,64.18
2022-08-19T04:28:48.221Z,64.18
2022-08-19T04:29:48.202Z,64.18
2022-08-19T04:30:48.176Z,64.18
2022-08-19T04:31:48.193Z,64.18
2022-08-19T04:32:48.238Z,64.18
2022-08-19T04:33:48.147Z,64.08
2022-08-19T04:35:15.882Z,64.28
2022-08-19T04:35:49.146Z,64.28
2022-08-19T04:36:48.106Z,64.18
2022-08-19T04:37:48.121Z,64.18
2022-08-19T04:38:48.110Z,64.18
2022-08-19T04:39:48.213Z,64.18
2022-08-19T04:40:48.080Z,64.18
2022-08-19T04:41:48.108Z,64.18
2022-08-19T04:42:48.081Z,64.18
2022-08-19T04:43:48.060Z,64.28
2022-08-19T04:44:48.044Z,64.28
2022-08-19T04:45:48.027Z,64.28
2022-08-19T04:46:51.758Z,64.18
2022-08-19T04:47:58.262Z,64.48
2022-08-19T04:48:49.284Z,64.38
2022-08-19T04:49:47.990Z,64.38
2022-08-19T04:50:47.968Z,64.28
2022-08-19T04:51:47.990Z,64.28
2022-08-19T04:52:48.035Z,64.28
2022-08-19T04:53:47.961Z,64.28
2022-08-19T04:54:47.926Z,64.28
2022-08-19T04:55:47.930Z,64.28
2022-08-19T04:56:47.929Z,64.28
2022-08-19T04:57:47.910Z,64.28
2022-08-19T04:58:47.902Z,64.38
2022-08-19T04:59:47.892Z,64.48
2022-08-19T05:00:47.965Z,64.38
2022-08-19T05:01:47.853Z,64.28
2022-08-19T05:02:47.905Z,64.28
2022-08-19T05:03:47.861Z,64.28
2022-08-19T05:04:47.830Z,64.28
2022-08-19T05:05:47.807Z,64.38
2022-08-19T05:06:47.811Z,64.38
2022-08-19T05:07:47.819Z,64.28
2022-08-19T05:08:47.791Z,64.28
2022-08-19T05:09:57.863Z,64.38
2022-08-19T05:10:48.780Z,64.28
2022-08-19T05:11:47.747Z,64.18
2022-08-19T05:12:47.839Z,64.28
2022-08-19T05:13:47.740Z,64.28
2022-08-19T05:14:47.733Z,64.28
2022-08-19T05:15:47.728Z,64.28
2022-08-19T05:16:47.700Z,64.18
2022-08-19T05:17:47.697Z,64.18
2022-08-19T05:18:47.680Z,64.18
2022-08-19T05:19:47.667Z,64.18
2022-08-19T05:20:47.646Z,64.28
2022-08-19T05:21:47.669Z,64.28
2022-08-19T05:22:47.729Z,64.28
2022-08-19T05:23:47.627Z,64.28
2022-08-19T05:25:11.179Z,64.28
2022-08-19T05:25:48.617Z,64.28
2022-08-19T05:26:47.603Z,64.28
2022-08-19T05:27:54.620Z,64.18
2022-08-19T05:28:47.585Z,64.28
2022-08-19T05:29:47.600Z,64.28
2022-08-19T05:30:47.819Z,64.18
2022-08-19T05:31:47.624Z,64.18
2022-08-19T05:32:47.644Z,64.18
2022-08-19T05:33:47.531Z,64.18
2022-08-19T05:34:47.535Z,64.18
2022-08-19T05:35:47.512Z,64.18
2022-08-19T05:36:47.528Z,64.18
2022-08-19T05:37:47.496Z,64.18
2022-08-19T05:38:47.462Z,64.28
2022-08-19T05:39:51.261Z,64.18
2022-08-19T05:40:47.505Z,64.18
2022-08-19T05:41:47.438Z,64.18
2022-08-19T05:42:47.495Z,64.18
2022-08-19T05:43:48.451Z,64.28
2022-08-19T05:44:47.416Z,64.28
2022-08-19T05:45:47.424Z,64.28
2022-08-19T05:46:47.382Z,64.28
2022-08-19T05:47:47.451Z,64.18
2022-08-19T05:48:47.363Z,64.18
2022-08-19T05:49:47.366Z,64.18
2022-08-19T05:50:47.391Z,64.18
2022-08-19T05:51:47.346Z,64.18
2022-08-19T05:52:50.846Z,64.18
2022-08-19T05:53:47.335Z,64.18
2022-08-19T05:54:47.292Z,64.28
2022-08-19T05:55:47.317Z,64.38
2022-08-19T05:56:47.295Z,64.38
2022-08-19T05:57:47.275Z,64.38
2022-08-19T05:58:47.262Z,64.38
2022-08-19T05:59:47.279Z,64.48
2022-08-19T06:00:47.313Z,64.48
2022-08-19T06:01:47.249Z,64.48
2022-08-19T06:02:47.289Z,64.48
2022-08-19T06:03:47.239Z,64.58
2022-08-19T06:04:47.204Z,64.58
2022-08-19T06:05:49.643Z,64.58
2022-08-19T06:06:47.185Z,64.58
2022-08-19T06:07:47.318Z,64.48
2022-08-19T06:08:47.196Z,64.38
2022-08-19T06:09:59.048Z,64.38
2022-08-19T06:10:48.161Z,64.38
2022-08-19T06:11:47.141Z,64.48
2022-08-19T06:12:47.135Z,64.48
2022-08-19T06:13:47.142Z,64.48
2022-08-19T06:14:47.106Z,64.67
2022-08-19T06:15:48.098Z,64.48
2022-08-19T06:16:47.111Z,64.58
2022-08-19T06:17:47.102Z,64.48
2022-08-19T06:18:47.041Z,64.38
2022-08-19T06:19:47.054Z,64.38
2022-08-19T06:20:55.982Z,64.28
2022-08-19T06:21:48.075Z,64.28
2022-08-19T06:22:46.999Z,64.18
2022-08-19T06:23:46.999Z,64.18
2022-08-19T06:24:46.986Z,64.18
2022-08-19T06:25:46.992Z,64.18
2022-08-19T06:28:11.888Z,64.18
2022-08-19T06:28:47.960Z,64.18
2022-08-19T06:29:46.933Z,64.28
2022-08-19T06:30:46.927Z,64.38
2022-08-19T06:31:46.937Z,64.48
2022-08-19T06:32:46.937Z,64.48
2022-08-19T06:33:46.908Z,64.58
2022-08-19T06:34:46.891Z,64.48
2022-08-19T06:35:46.866Z,64.48
2022-08-19T06:36:46.893Z,64.38
2022-08-19T06:37:46.904Z,64.48
2022-08-19T06:38:46.857Z,64.38
2022-08-19T06:39:46.904Z,64.28
2022-08-19T06:40:46.830Z,64.28
2022-08-19T06:41:51.228Z,64.28
2022-08-19T06:42:54.813Z,64.28
2022-08-19T06:43:47.848Z,64.28
2022-08-19T06:44:48.264Z,64.38
2022-08-19T06:45:46.766Z,64.38
2022-08-19T06:46:46.833Z,64.48
2022-08-19T06:47:47.757Z,64.48
2022-08-19T06:48:46.737Z,64.48
2022-08-19T06:49:46.755Z,64.48
2022-08-19T06:50:46.747Z,64.48
2022-08-19T06:51:46.696Z,64.48
2022-08-19T06:52:46.703Z,64.48
2022-08-19T06:53:46.724Z,64.48
2022-08-19T06:54:56.283Z,64.48
2022-08-19T06:55:47.699Z,64.58
2022-08-19T06:56:46.662Z,64.58
2022-08-19T06:57:46.691Z,64.58
2022-08-19T06:58:46.632Z,64.67
2022-08-19T06:59:46.657Z,64.58
2022-08-19T07:00:46.607Z,64.58
2022-08-19T07:01:46.678Z,64.67
2022-08-19T07:02:52.151Z,64.67
2022-08-19T07:03:47.587Z,64.78
2022-08-19T07:04:46.584Z,64.78
2022-08-19T07:05:47.254Z,64.78
2022-08-19T07:06:46.591Z,64.87
2022-08-19T07:07:47.737Z,64.87
2022-08-19T07:08:46.559Z,65.07
2022-08-19T07:09:52.194Z,64.97
2022-08-19T07:10:47.504Z,64.97
2022-08-19T07:11:46.516Z,65.07
2022-08-19T07:12:46.526Z,65.07
2022-08-19T07:13:46.465Z,65.07
2022-08-19T07:14:46.469Z,65.07
2022-08-19T07:15:46.456Z,64.97
2022-08-19T07:16:46.456Z,64.87
2022-08-19T07:17:49.376Z,64.87
2022-08-19T07:18:47.423Z,64.78
2022-08-19T07:19:46.433Z,64.78
2022-08-19T07:20:46.391Z,64.78
2022-08-19T07:21:46.394Z,64.78
2022-08-19T07:22:46.423Z,64.78
2022-08-19T07:23:46.370Z,64.78
2022-08-19T07:24:51.259Z,64.67
2022-08-19T07:25:53.237Z,64.78
2022-08-19T07:26:47.334Z,64.90
2022-08-19T07:27:46.574Z,64.78
2022-08-19T07:28:51.528Z,64.90
2022-08-19T07:29:47.318Z,64.90
2022-08-19T07:30:47.332Z,64.90
2022-08-19T07:31:46.289Z,64.87
2022-08-19T07:32:46.287Z,64.87
2022-08-19T07:33:46.267Z,64.90
2022-08-19T07:34:46.271Z,64.90
2022-08-19T07:35:46.263Z,64.87
2022-08-19T07:36:46.239Z,64.90
2022-08-19T07:37:46.229Z,65.00
2022-08-19T07:38:46.262Z,64.97
2022-08-19T07:39:46.250Z,64.97
2022-08-19T07:40:46.194Z,65.00
2022-08-19T07:41:46.165Z,65.00
2022-08-19T07:42:46.191Z,65.10
2022-08-19T07:43:46.144Z,65.10
2022-08-19T07:44:50.731Z,65.20
2022-08-19T07:45:46.177Z,65.20
2022-08-19T07:46:47.326Z,65.20
2022-08-19T07:47:48.734Z,65.30
2022-08-19T07:48:46.126Z,65.30
2022-08-19T07:49:46.098Z,65.40
2022-08-19T07:50:46.112Z,65.30
2022-08-19T07:51:46.087Z,65.40
2022-08-19T07:52:48.921Z,65.50
2022-08-19T07:53:46.066Z,65.50
2022-08-19T07:54:46.037Z,65.59
2022-08-19T07:55:46.027Z,65.80
2022-08-19T07:56:46.027Z,65.80
2022-08-19T07:57:46.022Z,65.80
2022-08-19T07:58:46.100Z,65.99
2022-08-19T07:59:45.991Z,65.99
2022-08-19T08:00:46.002Z,65.99
2022-08-19T08:01:46.009Z,66.09
2022-08-19T08:02:45.978Z,66.09
2022-08-19T08:03:45.949Z,66.39
2022-08-19T08:04:46.028Z,66.39
2022-08-19T08:05:45.919Z,66.39
2022-08-19T08:06:46.017Z,66.39
2022-08-19T08:07:46.206Z,66.29
2022-08-19T08:08:48.395Z,66.26
2022-08-19T08:09:49.702Z,66.39
2022-08-19T08:10:48.720Z,66.39
2022-08-19T08:11:46.867Z,66.49
2022-08-19T08:12:49.172Z,66.49
2022-08-19T08:13:46.828Z,66.58
2022-08-19T08:14:46.839Z,66.58
2022-08-19T08:15:45.835Z,66.58
2022-08-19T08:16:47.086Z,66.49
2022-08-19T08:17:49.256Z,66.58
2022-08-19T08:18:50.506Z,66.58
2022-08-19T08:19:46.799Z,66.58
2022-08-19T08:20:46.751Z,66.69
2022-08-19T08:21:45.798Z,66.69
2022-08-19T08:22:45.755Z,66.69
2022-08-19T08:23:45.803Z,66.69
2022-08-19T08:24:45.745Z,66.69
2022-08-19T08:25:45.695Z,66.69
2022-08-19T08:26:46.805Z,66.69
2022-08-19T08:27:45.774Z,66.69
2022-08-19T08:28:47.939Z,66.69
2022-08-19T08:29:45.673Z,66.58
2022-08-19T08:30:45.654Z,66.58
2022-08-19T08:31:45.904Z,66.69
2022-08-19T08:32:45.627Z,66.69
2022-08-19T08:33:45.636Z,66.69
2022-08-19T08:34:47.461Z,66.69
2022-08-19T08:35:46.618Z,66.69
2022-08-19T08:36:45.600Z,66.78
2022-08-19T08:37:45.600Z,66.78
2022-08-19T08:38:45.584Z,66.78
2022-08-19T08:39:45.615Z,66.69
2022-08-19T08:40:45.580Z,66.78
2022-08-19T08:41:45.582Z,66.78
2022-08-19T08:42:45.538Z,66.78
2022-08-19T08:43:45.543Z,66.78
2022-08-19T08:44:45.547Z,66.78
2022-08-19T08:45:45.597Z,66.78
2022-08-19T08:46:46.490Z,66.78
2022-08-19T08:47:45.495Z,66.78
2022-08-19T08:48:45.472Z,66.78
2022-08-19T08:49:45.453Z,66.78
2022-08-19T08:50:45.438Z,66.78
2022-08-19T08:51:47.592Z,66.78
2022-08-19T08:52:45.421Z,66.78
2022-08-19T08:53:45.410Z,66.78
2022-08-19T08:54:48.756Z,66.78
2022-08-19T08:55:46.398Z,66.88
2022-08-19T08:56:45.380Z,66.88
2022-08-19T08:57:45.411Z,66.98
2022-08-19T08:58:45.368Z,66.98
2022-08-19T08:59:45.348Z,66.98
2022-08-19T09:00:45.358Z,66.98
2022-08-19T09:01:45.374Z,66.98
2022-08-19T09:02:45.341Z,66.98
2022-08-19T09:03:46.310Z,66.88
2022-08-19T09:04:45.312Z,66.98
2022-08-19T09:05:48.561Z,66.98
2022-08-19T09:06:45.301Z,66.88
2022-08-19T09:07:47.420Z,66.88
2022-08-19T09:08:45.259Z,66.78
2022-08-19T09:09:45.227Z,66.78
2022-08-19T09:10:45.394Z,66.78
2022-08-19T09:11:45.260Z,66.69
2022-08-19T09:12:45.225Z,66.69
2022-08-19T09:13:45.200Z,66.69
2022-08-19T09:14:52.560Z,66.78
2022-08-19T09:15:46.180Z,66.69
2022-08-19T09:16:45.185Z,66.58
2022-08-19T09:17:45.171Z,66.49
2022-08-19T09:18:46.177Z,66.58
2022-08-19T09:19:45.129Z,66.69
2022-08-19T09:20:45.116Z,66.78
2022-08-19T09:21:45.105Z,66.78
2022-08-19T09:22:45.118Z,66.78
2022-08-19T09:23:45.075Z,66.88
2022-08-19T09:24:45.081Z,66.98
2022-08-19T09:25:45.057Z,66.98
2022-08-19T09:26:48.385Z,66.98
2022-08-19T09:27:46.101Z,67.08
2022-08-19T09:28:45.052Z,67.18
2022-08-19T09:29:45.017Z,67.08
2022-08-19T09:30:45.029Z,67.08
2022-08-19T09:31:45.010Z,67.08
2022-08-19T09:32:45.066Z,67.18
2022-08-19T09:33:45.007Z,67.18
2022-08-19T09:34:47.594Z,67.18
2022-08-19T09:35:52.994Z,67.18
2022-08-19T09:36:45.938Z,67.08
2022-08-19T09:37:45.010Z,67.18
2022-08-19T09:38:44.917Z,67.18
2022-08-19T09:39:44.967Z,67.08
2022-08-19T09:40:44.918Z,67.18
2022-08-19T09:41:47.381Z,67.18
2022-08-19T09:42:50.087Z,67.08
2022-08-19T09:43:48.052Z,67.18
2022-08-19T09:44:44.869Z,67.28
2022-08-19T09:45:44.861Z,67.28
2022-08-19T09:46:44.850Z,67.28
2022-08-19T09:47:44.830Z,67.28
2022-08-19T09:48:44.831Z,67.28
2022-08-19T09:49:44.800Z,67.28
2022-08-19T09:50:51.455Z,67.38
2022-08-19T09:51:50.397Z,67.38
2022-08-19T09:52:55.595Z,67.38
2022-08-19T09:53:45.780Z,67.38
2022-08-19T09:54:44.746Z,67.28
2022-08-19T09:55:45.754Z,67.28
2022-08-19T09:56:44.762Z,67.38
2022-08-19T09:57:45.099Z,67.38
2022-08-19T09:58:44.707Z,67.47
2022-08-19T09:59:44.741Z,67.38
2022-08-19T10:00:44.688Z,67.38
2022-08-19T10:01:45.710Z,67.28
2022-08-19T10:02:45.653Z,67.38
2022-08-19T10:03:44.714Z,67.28
2022-08-19T10:04:44.647Z,67.28
2022-08-19T10:05:44.700Z,67.18
2022-08-19T10:06:46.147Z,67.47
2022-08-19T10:07:44.686Z,67.68
2022-08-19T10:08:49.895Z,67.77
2022-08-19T10:09:45.587Z,67.77
2022-08-19T10:10:46.348Z,67.87
2022-08-19T10:11:52.199Z,67.68
2022-08-19T10:12:45.581Z,67.68
2022-08-19T10:13:44.561Z,67.77
2022-08-19T10:14:44.556Z,67.58
2022-08-19T10:15:47.380Z,67.47
2022-08-19T10:16:44.554Z,67.58
2022-08-19T10:17:48.177Z,67.38
2022-08-19T10:18:49.766Z,67.47
2022-08-19T10:19:55.196Z,67.28
2022-08-19T10:20:45.493Z,67.28
2022-08-19T10:21:44.485Z,67.58
2022-08-19T10:22:44.445Z,67.68
2022-08-19T10:23:44.472Z,67.58
2022-08-19T10:24:44.459Z,67.38
2022-08-19T10:25:44.500Z,67.47
2022-08-19T10:26:44.449Z,67.58
2022-08-19T10:27:47.917Z,67.77
2022-08-19T10:28:47.180Z,67.68
2022-08-19T10:29:46.257Z,67.77
2022-08-19T10:30:44.366Z,67.68
2022-08-19T10:32:01.077Z,68.07
2022-08-19T10:32:46.409Z,68.17
2022-08-19T10:33:53.979Z,68.17
2022-08-19T10:34:48.843Z,68.27
2022-08-19T10:35:57.392Z,68.46
2022-08-19T10:36:53.790Z,68.57
2022-08-19T10:37:49.824Z,68.46
2022-08-19T10:38:51.166Z,68.57
2022-08-19T10:39:45.281Z,68.57
2022-08-19T10:40:44.247Z,68.46
2022-08-19T10:41:44.254Z,68.17
2022-08-19T10:42:44.254Z,67.77
2022-08-19T10:43:44.231Z,68.17
2022-08-19T10:44:44.271Z,68.37
2022-08-19T10:45:52.344Z,68.86
2022-08-19T10:46:48.757Z,68.96
2022-08-19T10:47:44.258Z,68.96
2022-08-19T10:48:44.167Z,69.16
2022-08-19T10:49:44.181Z,69.26
2022-08-19T10:50:44.182Z,69.26
2022-08-19T10:51:46.629Z,69.35
2022-08-19T10:52:49.790Z,69.29
2022-08-19T10:53:45.156Z,69.26
2022-08-19T10:54:44.108Z,69.29
2022-08-19T10:55:44.132Z,69.39
2022-08-19T10:56:44.091Z,69.39
2022-08-19T10:58:01.715Z,69.39
2022-08-19T10:58:45.068Z,69.39
2022-08-19T10:59:44.061Z,69.39
2022-08-19T11:00:44.624Z,69.49
2022-08-19T11:01:44.036Z,69.49
2022-08-19T11:02:44.045Z,69.59
2022-08-19T11:03:44.019Z,69.49
2022-08-19T11:04:44.088Z,69.49
2022-08-19T11:05:44.027Z,69.49
2022-08-19T11:06:43.990Z,69.69
2022-08-19T11:07:44.008Z,69.59
2022-08-19T11:08:44.032Z,69.69
2022-08-19T11:09:43.971Z,69.79
2022-08-19T11:10:43.976Z,70.28
2022-08-19T11:11:45.060Z,70.28
2022-08-19T11:12:43.923Z,70.28
2022-08-19T11:13:43.914Z,70.48
2022-08-19T11:14:43.932Z,70.48
2022-08-19T11:15:43.889Z,70.48
2022-08-19T11:16:44.010Z,70.48
2022-08-19T11:17:43.881Z,70.38
2022-08-19T11:18:43.895Z,70.18
2022-08-19T11:19:44.092Z,70.08
2022-08-19T11:20:43.869Z,70.08
2022-08-19T11:21:44.112Z,69.98
2022-08-19T11:22:43.938Z,69.98
2022-08-19T11:23:43.823Z,69.89
2022-08-19T11:24:43.825Z,69.59
2022-08-19T11:25:43.841Z,69.59
2022-08-19T11:26:44.029Z,69.59
2022-08-19T11:27:43.889Z,69.59
2022-08-19T11:28:44.069Z,69.59
2022-08-19T11:29:43.889Z,69.49
2022-08-19T11:30:43.898Z,69.49
2022-08-19T11:31:43.781Z,69.39
2022-08-19T11:32:48.775Z,69.49
2022-08-19T11:33:47.194Z,69.19
2022-08-19T11:34:43.721Z,69.39
2022-08-19T11:35:43.871Z,69.29
2022-08-19T11:36:43.721Z,69.09
2022-08-19T11:37:43.667Z,69.79
2022-08-19T11:38:43.631Z,70.28
2022-08-19T11:39:43.685Z,70.28
2022-08-19T11:40:44.622Z,70.18
2022-08-19T11:41:43.659Z,70.08
2022-08-19T11:42:43.605Z,70.18
2022-08-19T11:43:43.637Z,70.28
2022-08-19T11:44:43.601Z,70.18
2022-08-19T11:45:43.587Z,70.28
2022-08-19T11:46:43.581Z,70.28
2022-08-19T11:47:43.559Z,70.28
2022-08-19T11:48:43.543Z,69.98
2022-08-19T11:49:43.553Z,69.89
2022-08-19T11:50:43.521Z,69.89
2022-08-19T11:51:43.517Z,69.79
2022-08-19T11:52:43.580Z,69.69
2022-08-19T11:53:43.662Z,69.69
2022-08-19T11:54:43.692Z,69.89
2022-08-19T11:55:44.277Z,69.89
2022-08-19T11:56:43.449Z,69.79
2022-08-19T11:57:43.555Z,69.69
2022-08-19T11:58:43.442Z,69.29
2022-08-19T11:59:43.671Z,69.39
2022-08-19T12:00:43.422Z,69.59
2022-08-19T12:01:43.447Z,69.49
2022-08-19T12:02:43.430Z,69.39
2022-08-19T12:03:43.530Z,69.19
2022-08-19T12:04:43.743Z,69.39
2022-08-19T12:05:43.375Z,69.49
2022-08-19T12:06:43.338Z,69.89
2022-08-19T12:07:43.338Z,70.48
2022-08-19T12:08:43.375Z,70.38
2022-08-19T12:09:43.370Z,70.28
2022-08-19T12:10:43.308Z,70.18
2022-08-19T12:11:43.306Z,70.48
2022-08-19T12:12:43.298Z,70.38
2022-08-19T12:13:43.301Z,70.28
2022-08-19T12:14:43.322Z,70.28
2022-08-19T12:15:43.301Z,70.28
2022-08-19T12:16:44.767Z,69.79
2022-08-19T12:17:44.228Z,70.08
2022-08-19T12:18:43.234Z,70.28
2022-08-19T12:19:43.216Z,70.48
2022-08-19T12:20:43.213Z,70.38
2022-08-19T12:21:43.188Z,70.18
2022-08-19T12:22:43.188Z,69.89
2022-08-19T12:23:43.158Z,69.69
2022-08-19T12:24:43.181Z,69.69
2022-08-19T12:25:43.221Z,69.59
2022-08-19T12:26:52.887Z,69.69
2022-08-19T12:27:49.599Z,69.49
2022-08-19T12:28:44.151Z,69.29
2022-08-19T12:29:43.121Z,69.49
2022-08-19T12:30:43.106Z,69.39
2022-08-19T12:31:43.102Z,69.19
2022-08-19T12:32:43.058Z,69.09
2022-08-19T12:33:43.069Z,69.29
2022-08-19T12:34:43.047Z,69.09
2022-08-19T12:35:45.697Z,68.99
2022-08-19T12:36:43.061Z,68.90
2022-08-19T12:37:43.044Z,68.80
2022-08-19T12:38:42.988Z,68.80
2022-08-19T12:39:43.085Z,68.80
2022-08-19T12:40:43.019Z,68.90
2022-08-19T12:41:50.561Z,68.90
2022-08-19T12:42:43.959Z,69.09
2022-08-19T12:43:42.958Z,68.90
2022-08-19T12:44:42.939Z,68.80
2022-08-19T12:45:42.951Z,68.80
2022-08-19T12:46:42.934Z,68.70
2022-08-19T12:47:51.791Z,68.70
2022-08-19T12:48:43.918Z,68.70
2022-08-19T12:49:53.954Z,68.70
2022-08-19T12:50:43.910Z,68.70
2022-08-19T12:51:43.209Z,68.70
2022-08-19T12:52:42.858Z,68.70
2022-08-19T12:53:42.867Z,68.90